createdAt,value
2018-01-12T00:00:22.443Z,6.58
2018-01-12T00:01:23.033Z,6.58
2018-01-12T00:02:23.633Z,6.43
2018-01-12T00:03:24.235Z,6.43
2018-01-12T00:04:24.835Z,6.42
2018-01-12T00:05:25.435Z,6.55
2018-01-12T00:06:26.032Z,6.58
2018-01-12T00:07:26.630Z,6.55
2018-01-12T00:08:27.232Z,6.64
2018-01-12T00:09:27.828Z,6.53
2018-01-12T00:10:28.433Z,6.52
2018-01-12T00:11:29.032Z,6.52
2018-01-12T00:12:29.643Z,6.52
2018-01-12T00:13:30.245Z,6.48
2018-01-12T00:14:30.842Z,6.42
2018-01-12T00:15:31.453Z,6.49
2018-01-12T00:16:32.057Z,6.48
2018-01-12T00:17:32.649Z,6.43
2018-01-12T00:18:33.251Z,6.40
2018-01-12T00:19:33.853Z,6.43
2018-01-12T00:20:34.451Z,6.42
2018-01-12T00:21:35.065Z,6.46
2018-01-12T00:22:35.668Z,6.48
2018-01-12T00:23:36.270Z,6.43
2018-01-12T00:24:36.867Z,6.48
2018-01-12T00:25:37.487Z,6.39
2018-01-12T00:26:38.082Z,6.42
2018-01-12T00:27:38.682Z,6.48
2018-01-12T00:28:39.280Z,6.46
2018-01-12T00:29:39.896Z,6.39
2018-01-12T00:30:40.496Z,6.42
2018-01-12T00:31:41.103Z,6.38
2018-01-12T00:32:41.711Z,6.31
2018-01-12T00:33:42.313Z,6.28
2018-01-12T00:34:42.920Z,6.31
2018-01-12T00:35:44.521Z,6.28
2018-01-12T00:36:45.129Z,6.22
2018-01-12T00:37:45.716Z,6.24
2018-01-12T00:38:46.316Z,6.24
2018-01-12T00:39:46.920Z,6.15
2018-01-12T00:40:47.526Z,6.19
2018-01-12T00:41:48.121Z,6.19
2018-01-12T00:42:48.720Z,6.20
2018-01-12T00:43:49.319Z,6.12
2018-01-12T00:44:49.929Z,6.13
2018-01-12T00:45:50.523Z,6.08
2018-01-12T00:46:51.131Z,6.09
2018-01-12T00:47:51.728Z,6.11
2018-01-12T00:48:52.339Z,6.16
2018-01-12T00:49:52.943Z,6.12
2018-01-12T00:50:53.558Z,6.19
2018-01-12T00:51:54.140Z,6.09
2018-01-12T00:52:54.738Z,6.11
2018-01-12T00:53:55.327Z,6.12
2018-01-12T00:54:55.923Z,6.09
2018-01-12T00:55:56.526Z,6.11
2018-01-12T00:56:57.125Z,6.09
2018-01-12T00:57:57.727Z,6.19
2018-01-12T00:58:58.319Z,6.13
2018-01-12T00:59:58.917Z,6.16
2018-01-12T01:00:59.535Z,6.22
2018-01-12T01:02:00.141Z,6.13
2018-01-12T01:03:00.747Z,6.25
2018-01-12T01:04:01.353Z,6.19
2018-01-12T01:05:01.960Z,6.16
2018-01-12T01:06:02.566Z,6.12
2018-01-12T01:07:03.188Z,6.16
2018-01-12T01:08:03.795Z,6.20
2018-01-12T01:09:04.422Z,6.20
2018-01-12T01:10:05.028Z,6.19
2018-01-12T01:11:05.632Z,6.19
2018-01-12T01:12:06.260Z,6.22
2018-01-12T01:13:06.871Z,6.13
2018-01-12T01:14:07.476Z,6.22
2018-01-12T01:15:08.081Z,6.19
2018-01-12T01:16:08.683Z,6.19
2018-01-12T01:17:09.287Z,6.20
2018-01-12T01:18:09.892Z,6.12
2018-01-12T01:19:10.495Z,6.11
2018-01-12T01:20:11.100Z,6.12
2018-01-12T01:21:11.705Z,6.09
2018-01-12T01:22:12.331Z,6.16
2018-01-12T01:23:12.936Z,6.19
2018-01-12T01:24:13.542Z,6.06
2018-01-12T01:25:14.169Z,5.96
2018-01-12T01:26:14.772Z,6.06
2018-01-12T01:27:15.399Z,5.96
2018-01-12T01:28:16.026Z,5.99
2018-01-12T01:29:16.631Z,5.97
2018-01-12T01:30:17.237Z,6.05
2018-01-12T01:31:17.863Z,6.01
2018-01-12T01:32:18.465Z,6.05
2018-01-12T01:33:19.069Z,6.01
2018-01-12T01:34:19.673Z,5.94
2018-01-12T01:35:20.278Z,5.96
2018-01-12T01:36:20.881Z,5.88
2018-01-12T01:37:21.521Z,5.94
2018-01-12T01:38:22.150Z,5.93
2018-01-12T01:39:22.754Z,5.87
2018-01-12T01:40:23.356Z,5.88
2018-01-12T01:41:23.960Z,5.91
2018-01-12T01:42:24.566Z,5.93
2018-01-12T01:43:25.173Z,5.90
2018-01-12T01:44:25.779Z,5.90
2018-01-12T01:45:26.384Z,5.79
2018-01-12T01:46:26.990Z,5.84
2018-01-12T01:47:27.596Z,5.87
2018-01-12T01:48:28.200Z,5.86
2018-01-12T01:49:28.804Z,5.81
2018-01-12T01:50:29.429Z,5.76
2018-01-12T01:51:30.035Z,5.79
2018-01-12T01:52:30.640Z,5.75
2018-01-12T01:53:31.243Z,5.73
2018-01-12T01:54:31.847Z,5.72
2018-01-12T01:55:32.450Z,5.70
2018-01-12T01:56:33.054Z,5.70
2018-01-12T01:57:33.658Z,5.70
2018-01-12T01:58:34.284Z,5.66
2018-01-12T01:59:34.888Z,5.61
2018-01-12T02:00:35.492Z,5.60
2018-01-12T02:01:36.096Z,5.61
2018-01-12T02:02:36.701Z,5.63
2018-01-12T02:03:37.304Z,5.60
2018-01-12T02:04:37.907Z,5.57
2018-01-12T02:05:38.565Z,5.54
2018-01-12T02:06:39.115Z,5.55
2018-01-12T02:07:39.721Z,5.52
2018-01-12T02:08:40.326Z,5.54
2018-01-12T02:09:40.931Z,5.47
2018-01-12T02:10:41.534Z,5.48
2018-01-12T02:11:42.136Z,5.45
2018-01-12T02:12:42.740Z,5.48
2018-01-12T02:13:43.345Z,5.45
2018-01-12T02:14:43.949Z,5.42
2018-01-12T02:15:44.553Z,5.50
2018-01-12T02:16:45.156Z,5.57
2018-01-12T02:17:45.761Z,5.45
2018-01-12T02:18:46.365Z,5.57
2018-01-12T02:19:46.971Z,5.47
2018-01-12T02:20:47.575Z,5.54
2018-01-12T02:21:48.179Z,5.54
2018-01-12T02:22:48.781Z,5.48
2018-01-12T02:23:49.388Z,5.47
2018-01-12T02:24:49.989Z,5.40
2018-01-12T02:25:50.593Z,5.47
2018-01-12T02:26:51.197Z,5.44
2018-01-12T02:27:51.828Z,5.48
2018-01-12T02:28:52.450Z,5.48
2018-01-12T02:29:53.055Z,5.47
2018-01-12T02:30:53.661Z,5.42
2018-01-12T02:31:54.266Z,5.47
2018-01-12T02:32:54.872Z,5.45
2018-01-12T02:33:55.474Z,5.48
2018-01-12T02:34:56.078Z,5.45
2018-01-12T02:35:56.704Z,5.50
2018-01-12T02:36:57.308Z,5.48
2018-01-12T02:37:57.914Z,5.45
2018-01-12T02:38:58.518Z,5.50
2018-01-12T02:39:59.123Z,5.48
2018-01-12T02:40:59.726Z,5.52
2018-01-12T02:42:00.351Z,5.51
2018-01-12T02:43:00.956Z,5.42
2018-01-12T02:44:01.563Z,5.40
2018-01-12T02:45:02.168Z,5.40
2018-01-12T02:46:02.769Z,5.34
2018-01-12T02:47:03.373Z,5.32
2018-01-12T02:48:03.978Z,5.44
2018-01-12T02:49:04.583Z,5.36
2018-01-12T02:50:05.186Z,5.40
2018-01-12T02:51:05.813Z,5.39
2018-01-12T02:52:06.418Z,5.30
2018-01-12T02:53:07.020Z,5.34
2018-01-12T02:54:07.623Z,5.30
2018-01-12T02:55:08.227Z,5.27
2018-01-12T02:56:08.854Z,5.44
2018-01-12T02:57:09.478Z,5.40
2018-01-12T02:58:10.082Z,5.29
2018-01-12T02:59:10.688Z,5.33
2018-01-12T03:00:11.298Z,5.27
2018-01-12T03:01:11.898Z,5.26
2018-01-12T03:02:12.492Z,5.22
2018-01-12T03:03:13.093Z,5.22
2018-01-12T03:04:13.690Z,5.22
2018-01-12T03:05:14.291Z,5.26
2018-01-12T03:06:14.892Z,5.22
2018-01-12T03:07:15.497Z,5.18
2018-01-12T03:08:16.103Z,5.27
2018-01-12T03:09:16.708Z,5.26
2018-01-12T03:10:17.301Z,5.26
2018-01-12T03:11:17.901Z,5.19
2018-01-12T03:12:18.495Z,5.24
2018-01-12T03:13:19.111Z,5.27
2018-01-12T03:14:19.712Z,5.26
2018-01-12T03:15:20.311Z,5.24
2018-01-12T03:16:20.913Z,5.18
2018-01-12T03:17:21.511Z,5.24
2018-01-12T03:18:22.111Z,5.26
2018-01-12T03:19:22.717Z,5.26
2018-01-12T03:20:23.334Z,5.29
2018-01-12T03:21:23.936Z,5.24
2018-01-12T03:22:24.534Z,5.26
2018-01-12T03:23:25.132Z,5.26
2018-01-12T03:24:25.727Z,5.26
2018-01-12T03:25:26.334Z,5.26
2018-01-12T03:26:26.942Z,5.21
2018-01-12T03:27:27.545Z,5.29
2018-01-12T03:28:28.146Z,5.18
2018-01-12T03:29:28.748Z,5.21
2018-01-12T03:30:29.355Z,5.26
2018-01-12T03:31:29.956Z,5.29
2018-01-12T03:32:30.545Z,5.24
2018-01-12T03:33:31.136Z,5.26
2018-01-12T03:34:31.735Z,5.16
2018-01-12T03:35:32.335Z,5.19
2018-01-12T03:36:32.932Z,5.16
2018-01-12T03:37:33.539Z,5.16
2018-01-12T03:38:34.129Z,5.18
2018-01-12T03:39:34.731Z,5.15
2018-01-12T03:40:35.328Z,5.12
2018-01-12T03:41:35.925Z,5.16
2018-01-12T03:42:36.538Z,5.15
2018-01-12T03:43:37.126Z,5.15
2018-01-12T03:44:37.724Z,5.16
2018-01-12T03:45:38.320Z,5.15
2018-01-12T03:46:38.928Z,5.14
2018-01-12T03:47:39.535Z,5.18
2018-01-12T03:48:40.139Z,5.15
2018-01-12T03:49:40.737Z,5.16
2018-01-12T03:50:41.340Z,5.22
2018-01-12T03:51:41.956Z,5.15
2018-01-12T03:52:42.551Z,5.16
2018-01-12T03:53:43.162Z,5.15
2018-01-12T03:54:43.771Z,5.21
2018-01-12T03:55:44.374Z,5.16
2018-01-12T03:56:44.989Z,5.19
2018-01-12T03:57:45.605Z,5.21
2018-01-12T03:58:46.214Z,5.21
2018-01-12T03:59:46.810Z,5.26
2018-01-12T04:00:47.416Z,5.22
2018-01-12T04:01:48.012Z,5.22
2018-01-12T04:02:48.614Z,5.19
2018-01-12T04:03:49.213Z,5.29
2018-01-12T04:04:49.818Z,5.24
2018-01-12T04:05:50.422Z,5.26
2018-01-12T04:06:51.027Z,5.27
2018-01-12T04:07:51.633Z,5.24
2018-01-12T04:08:52.225Z,5.19
2018-01-12T04:09:52.820Z,5.18
2018-01-12T04:10:53.419Z,5.18
2018-01-12T04:11:54.016Z,5.18
2018-01-12T04:12:54.618Z,5.22
2018-01-12T04:13:55.204Z,5.19
2018-01-12T04:14:55.794Z,5.16
2018-01-12T04:15:56.400Z,5.16
2018-01-12T04:16:57.003Z,5.27
2018-01-12T04:17:57.609Z,5.14
2018-01-12T04:18:58.219Z,5.18
2018-01-12T04:19:58.815Z,5.18
2018-01-12T04:20:59.424Z,5.26
2018-01-12T04:22:00.017Z,5.16
2018-01-12T04:23:00.613Z,5.14
2018-01-12T04:24:01.212Z,5.18
2018-01-12T04:25:01.805Z,5.11
2018-01-12T04:26:02.399Z,5.14
2018-01-12T04:27:03.003Z,5.19
2018-01-12T04:28:03.610Z,5.24
2018-01-12T04:29:04.208Z,5.15
2018-01-12T04:30:04.803Z,5.18
2018-01-12T04:31:05.400Z,5.11
2018-01-12T04:32:05.998Z,5.18
2018-01-12T04:33:06.612Z,5.11
2018-01-12T04:34:07.222Z,5.15
2018-01-12T04:35:07.837Z,5.04
2018-01-12T04:36:08.440Z,5.08
2018-01-12T04:37:09.035Z,5.16
2018-01-12T04:38:09.639Z,5.11
2018-01-12T04:39:10.233Z,5.11
2018-01-12T04:40:10.838Z,5.15
2018-01-12T04:41:11.457Z,5.11
2018-01-12T04:42:12.056Z,5.19
2018-01-12T04:43:12.658Z,5.15
2018-01-12T04:44:13.257Z,5.18
2018-01-12T04:45:13.856Z,5.18
2018-01-12T04:46:14.452Z,5.16
2018-01-12T04:47:15.041Z,5.19
2018-01-12T04:48:15.638Z,5.16
2018-01-12T04:49:16.232Z,5.18
2018-01-12T04:50:16.844Z,5.11
2018-01-12T04:51:17.450Z,5.11
2018-01-12T04:52:18.039Z,5.12
2018-01-12T04:53:18.636Z,5.16
2018-01-12T04:54:19.229Z,5.12
2018-01-12T04:55:19.827Z,5.14
2018-01-12T04:56:20.433Z,5.11
2018-01-12T04:57:21.043Z,5.11
2018-01-12T04:58:21.640Z,5.12
2018-01-12T04:59:22.252Z,5.01
2018-01-12T05:00:22.851Z,5.07
2018-01-12T05:01:23.459Z,5.08
2018-01-12T05:02:24.055Z,5.07
2018-01-12T05:03:24.659Z,5.11
2018-01-12T05:04:25.255Z,5.03
2018-01-12T05:05:25.863Z,5.09
2018-01-12T05:06:26.473Z,5.08
2018-01-12T05:07:27.082Z,5.14
2018-01-12T05:08:27.680Z,5.12
2018-01-12T05:09:28.272Z,5.12
2018-01-12T05:10:28.879Z,4.99
2018-01-12T05:11:29.488Z,5.07
2018-01-12T05:12:30.104Z,5.00
2018-01-12T05:13:30.707Z,5.04
2018-01-12T05:14:31.320Z,5.01
2018-01-12T05:15:31.932Z,5.03
2018-01-12T05:16:32.522Z,4.99
2018-01-12T05:17:33.129Z,5.04
2018-01-12T05:18:33.738Z,4.97
2018-01-12T05:19:34.357Z,4.99
2018-01-12T05:20:34.960Z,5.04
2018-01-12T05:21:35.566Z,5.01
2018-01-12T05:22:36.180Z,5.04
2018-01-12T05:23:36.788Z,5.12
2018-01-12T05:24:37.378Z,5.01
2018-01-12T05:25:37.978Z,5.11
2018-01-12T05:26:38.585Z,5.14
2018-01-12T05:27:39.185Z,5.04
2018-01-12T05:28:39.802Z,5.11
2018-01-12T05:29:40.403Z,5.01
2018-01-12T05:30:40.994Z,5.07
2018-01-12T05:31:41.599Z,5.07
2018-01-12T05:32:42.212Z,5.08
2018-01-12T05:33:42.799Z,5.04
2018-01-12T05:34:43.387Z,4.97
2018-01-12T05:35:43.984Z,5.04
2018-01-12T05:36:44.589Z,5.04
2018-01-12T05:37:45.189Z,5.07
2018-01-12T05:38:45.801Z,5.14
2018-01-12T05:39:46.423Z,5.15
2018-01-12T05:40:47.027Z,5.11
2018-01-12T05:41:47.626Z,5.15
2018-01-12T05:42:48.219Z,5.11
2018-01-12T05:43:48.808Z,5.11
2018-01-12T05:44:49.406Z,5.18
2018-01-12T05:45:50.005Z,5.18
2018-01-12T05:46:50.609Z,5.15
2018-01-12T05:47:51.211Z,5.12
2018-01-12T05:48:51.822Z,5.16
2018-01-12T05:49:52.436Z,5.15
2018-01-12T05:50:53.042Z,5.09
2018-01-12T05:51:53.648Z,5.09
2018-01-12T05:52:54.257Z,5.14
2018-01-12T05:53:54.855Z,5.18
2018-01-12T05:54:55.461Z,5.12
2018-01-12T05:55:56.062Z,5.15
2018-01-12T05:56:56.665Z,5.14
2018-01-12T05:57:57.271Z,5.11
2018-01-12T05:58:57.874Z,5.16
2018-01-12T05:59:58.479Z,5.12
2018-01-12T06:00:59.086Z,5.08
2018-01-12T06:01:59.692Z,5.14
2018-01-12T06:03:00.296Z,5.19
2018-01-12T06:04:00.892Z,5.18
2018-01-12T06:05:01.489Z,5.14
2018-01-12T06:06:02.085Z,5.26
2018-01-12T06:07:02.689Z,5.26
2018-01-12T06:08:03.291Z,5.27
2018-01-12T06:09:03.888Z,5.27
2018-01-12T06:10:04.501Z,5.14
2018-01-12T06:11:05.098Z,5.24
2018-01-12T06:12:05.690Z,5.21
2018-01-12T06:13:06.286Z,5.22
2018-01-12T06:14:06.900Z,5.22
2018-01-12T06:15:07.505Z,5.24
2018-01-12T06:16:08.102Z,5.29
2018-01-12T06:17:08.704Z,5.27
2018-01-12T06:18:09.303Z,5.29
2018-01-12T06:19:09.899Z,5.27
2018-01-12T06:20:10.500Z,5.24
2018-01-12T06:21:11.099Z,5.26
2018-01-12T06:22:11.700Z,5.26
2018-01-12T06:23:12.326Z,5.22
2018-01-12T06:24:12.912Z,5.26
2018-01-12T06:25:13.514Z,5.27
2018-01-12T06:26:14.115Z,5.32
2018-01-12T06:27:14.719Z,5.34
2018-01-12T06:28:15.329Z,5.33
2018-01-12T06:29:15.933Z,5.42
2018-01-12T06:30:16.541Z,5.40
2018-01-12T06:31:17.154Z,5.37
2018-01-12T06:32:17.756Z,5.34
2018-01-12T06:33:18.351Z,5.44
2018-01-12T06:34:18.954Z,5.39
2018-01-12T06:35:19.558Z,5.30
2018-01-12T06:36:20.165Z,5.36
2018-01-12T06:37:20.769Z,5.33
2018-01-12T06:38:21.377Z,5.24
2018-01-12T06:39:21.980Z,5.33
2018-01-12T06:40:22.583Z,5.39
2018-01-12T06:41:23.185Z,5.37
2018-01-12T06:42:23.787Z,5.33
2018-01-12T06:43:24.385Z,5.32
2018-01-12T06:44:24.988Z,5.32
2018-01-12T06:45:25.587Z,5.29
2018-01-12T06:46:26.191Z,5.32
2018-01-12T06:47:26.801Z,5.33
2018-01-12T06:48:27.399Z,5.29
2018-01-12T06:49:28.002Z,5.30
2018-01-12T06:50:28.609Z,5.24
2018-01-12T06:51:29.219Z,5.29
2018-01-12T06:52:29.859Z,5.29
2018-01-12T06:53:30.490Z,5.30
2018-01-12T06:54:31.050Z,5.32
2018-01-12T06:55:31.659Z,5.29
2018-01-12T06:56:32.273Z,5.27
2018-01-12T06:57:32.884Z,5.22
2018-01-12T06:58:33.480Z,5.32
2018-01-12T06:59:34.087Z,5.32
2018-01-12T07:00:34.698Z,5.26
2018-01-12T07:01:35.294Z,5.24
2018-01-12T07:02:35.895Z,5.30
2018-01-12T07:03:36.491Z,5.29
2018-01-12T07:04:37.089Z,5.32
2018-01-12T07:05:37.696Z,5.24
2018-01-12T07:06:38.315Z,5.39
2018-01-12T07:07:38.926Z,5.30
2018-01-12T07:08:39.538Z,5.24
2018-01-12T07:09:40.128Z,5.29
2018-01-12T07:10:40.717Z,5.34
2018-01-12T07:11:41.313Z,5.33
2018-01-12T07:12:41.932Z,5.39
2018-01-12T07:13:42.545Z,5.37
2018-01-12T07:14:43.146Z,5.34
2018-01-12T07:15:43.741Z,5.44
2018-01-12T07:16:44.345Z,5.24
2018-01-12T07:17:44.952Z,5.32
2018-01-12T07:18:45.549Z,5.40
2018-01-12T07:19:46.150Z,5.34
2018-01-12T07:20:46.749Z,5.45
2018-01-12T07:21:47.357Z,5.37
2018-01-12T07:22:47.977Z,5.34
2018-01-12T07:23:48.595Z,5.34
2018-01-12T07:24:49.337Z,5.42
2018-01-12T07:25:49.954Z,5.37
2018-01-12T07:26:50.563Z,5.40
2018-01-12T07:27:51.179Z,5.44
2018-01-12T07:28:51.783Z,5.37
2018-01-12T07:29:52.409Z,5.40
2018-01-12T07:30:53.007Z,5.33
2018-01-12T07:31:53.607Z,5.33
2018-01-12T07:32:54.214Z,5.33
2018-01-12T07:33:54.818Z,5.32
2018-01-12T07:34:55.425Z,5.33
2018-01-12T07:35:56.035Z,5.37
2018-01-12T07:36:56.634Z,5.40
2018-01-12T07:37:57.242Z,5.30
2018-01-12T07:38:57.849Z,5.26
2018-01-12T07:39:58.468Z,5.30
2018-01-12T07:40:59.074Z,5.30
2018-01-12T07:41:59.673Z,5.33
2018-01-12T07:43:00.286Z,5.39
2018-01-12T07:44:00.885Z,5.33
2018-01-12T07:45:01.542Z,5.44
2018-01-12T07:46:02.095Z,5.32
2018-01-12T07:47:02.698Z,5.32
2018-01-12T07:48:03.631Z,5.34
2018-01-12T07:49:04.139Z,5.36
2018-01-12T07:50:04.748Z,5.48
2018-01-12T07:51:05.357Z,5.34
2018-01-12T07:52:05.956Z,5.36
2018-01-12T07:53:06.571Z,5.39
2018-01-12T07:54:07.191Z,5.33
2018-01-12T07:55:07.807Z,5.40
2018-01-12T07:56:08.403Z,5.45
2018-01-12T07:57:09.001Z,5.30
2018-01-12T07:58:09.611Z,5.40
2018-01-12T07:59:10.260Z,5.37
2018-01-12T08:00:10.849Z,5.40
2018-01-12T08:01:11.454Z,5.39
2018-01-12T08:02:12.052Z,5.34
2018-01-12T08:03:12.674Z,5.40
2018-01-12T08:04:13.287Z,5.42
2018-01-12T08:05:13.882Z,5.44
2018-01-12T08:06:14.487Z,5.39
2018-01-12T08:07:15.087Z,5.33
2018-01-12T08:08:15.698Z,5.37
2018-01-12T08:09:16.311Z,5.39
2018-01-12T08:10:16.928Z,5.39
2018-01-12T08:11:17.543Z,5.42
2018-01-12T08:12:18.158Z,5.42
2018-01-12T08:13:18.770Z,5.39
2018-01-12T08:14:19.376Z,5.45
2018-01-12T08:15:19.990Z,5.48
2018-01-12T08:16:20.602Z,5.48
2018-01-12T08:17:21.209Z,5.47
2018-01-12T08:18:21.849Z,5.52
2018-01-12T08:19:22.421Z,5.54
2018-01-12T08:20:23.036Z,5.50
2018-01-12T08:21:23.644Z,5.44
2018-01-12T08:22:24.246Z,5.55
2018-01-12T08:23:24.891Z,5.52
2018-01-12T08:24:25.504Z,5.42
2018-01-12T08:25:26.114Z,5.48
2018-01-12T08:26:26.709Z,5.48
2018-01-12T08:27:27.320Z,5.45
2018-01-12T08:28:27.921Z,5.48
2018-01-12T08:29:28.534Z,5.54
2018-01-12T08:30:29.136Z,5.42
2018-01-12T08:31:29.740Z,5.45
2018-01-12T08:32:30.358Z,5.44
2018-01-12T08:33:30.976Z,5.44
2018-01-12T08:34:31.596Z,5.52
2018-01-12T08:35:32.211Z,5.47
2018-01-12T08:36:32.830Z,5.47
2018-01-12T08:37:33.440Z,5.45
2018-01-12T08:38:34.047Z,5.44
2018-01-12T08:39:34.656Z,5.51
2018-01-12T08:40:35.271Z,5.54
2018-01-12T08:41:35.876Z,5.57
2018-01-12T08:42:36.486Z,5.54
2018-01-12T08:43:37.090Z,5.52
2018-01-12T08:44:37.712Z,5.54
2018-01-12T08:45:38.327Z,5.57
2018-01-12T08:46:38.978Z,5.54
2018-01-12T08:47:39.575Z,5.58
2018-01-12T08:48:40.176Z,5.57
2018-01-12T08:49:40.777Z,5.60
2018-01-12T08:50:41.384Z,5.65
2018-01-12T08:51:42.001Z,5.65
2018-01-12T08:52:42.615Z,5.60
2018-01-12T08:53:43.228Z,5.66
2018-01-12T08:54:43.832Z,5.63
2018-01-12T08:55:44.444Z,5.66
2018-01-12T08:56:45.055Z,5.72
2018-01-12T08:57:45.664Z,5.61
2018-01-12T08:58:46.260Z,5.72
2018-01-12T08:59:46.885Z,5.66
2018-01-12T09:00:47.471Z,5.68
2018-01-12T09:01:48.082Z,5.86
2018-01-12T09:02:48.676Z,5.83
2018-01-12T09:03:49.329Z,5.81
2018-01-12T09:04:49.929Z,5.87
2018-01-12T09:05:50.538Z,5.81
2018-01-12T09:06:51.151Z,5.88
2018-01-12T09:07:51.766Z,5.84
2018-01-12T09:08:52.366Z,5.88
2018-01-12T09:09:52.979Z,5.97
2018-01-12T09:10:53.587Z,5.93
2018-01-12T09:11:54.191Z,5.94
2018-01-12T09:12:54.797Z,5.96
2018-01-12T09:13:55.401Z,5.86
2018-01-12T09:14:56.008Z,5.96
2018-01-12T09:15:56.614Z,5.94
2018-01-12T09:16:57.218Z,5.94
2018-01-12T09:17:57.819Z,5.99
2018-01-12T09:18:58.435Z,6.06
2018-01-12T09:19:59.044Z,6.02
2018-01-12T09:20:59.663Z,5.93
2018-01-12T09:22:00.277Z,5.94
2018-01-12T09:23:00.873Z,6.04
2018-01-12T09:24:01.507Z,5.99
2018-01-12T09:25:02.098Z,6.09
2018-01-12T09:26:02.694Z,5.96
2018-01-12T09:27:03.308Z,6.13
2018-01-12T09:28:03.931Z,6.06
2018-01-12T09:29:04.543Z,6.13
2018-01-12T09:30:05.162Z,6.15
2018-01-12T09:31:05.767Z,6.19
2018-01-12T09:32:06.389Z,6.11
2018-01-12T09:33:07.001Z,6.13
2018-01-12T09:34:07.614Z,6.13
2018-01-12T09:35:08.221Z,6.09
2018-01-12T09:36:08.858Z,6.05
2018-01-12T09:37:09.470Z,6.05
2018-01-12T09:38:10.078Z,6.04
2018-01-12T09:39:10.690Z,6.02
2018-01-12T09:40:11.322Z,6.05
2018-01-12T09:41:11.945Z,6.06
2018-01-12T09:42:12.575Z,6.06
2018-01-12T09:43:13.172Z,6.08
2018-01-12T09:44:13.777Z,6.09
2018-01-12T09:45:14.384Z,5.97
2018-01-12T09:46:14.984Z,6.04
2018-01-12T09:47:15.928Z,5.97
2018-01-12T09:48:16.438Z,6.04
2018-01-12T09:49:17.053Z,5.96
2018-01-12T09:50:17.668Z,5.97
2018-01-12T09:51:18.647Z,5.97
2018-01-12T09:52:19.184Z,5.99
2018-01-12T09:53:19.790Z,5.99
2018-01-12T09:54:20.416Z,5.96
2018-01-12T09:55:21.017Z,5.99
2018-01-12T09:56:21.614Z,5.97
2018-01-12T09:57:22.243Z,6.01
2018-01-12T09:58:22.864Z,6.01
2018-01-12T09:59:23.490Z,6.06
2018-01-12T10:00:24.127Z,6.09
2018-01-12T10:01:24.755Z,6.13
2018-01-12T10:02:25.361Z,6.09
2018-01-12T10:03:25.980Z,6.09
2018-01-12T10:04:26.591Z,6.11
2018-01-12T10:05:27.217Z,6.08
2018-01-12T10:06:27.833Z,6.11
2018-01-12T10:07:28.442Z,6.15
2018-01-12T10:08:29.069Z,6.05
2018-01-12T10:09:29.695Z,6.08
2018-01-12T10:10:30.307Z,6.11
2018-01-12T10:11:30.916Z,6.16
2018-01-12T10:12:31.521Z,6.15
2018-01-12T10:13:32.147Z,6.15
2018-01-12T10:14:32.771Z,6.24
2018-01-12T10:15:33.429Z,6.19
2018-01-12T10:16:33.998Z,6.16
2018-01-12T10:17:34.614Z,6.19
2018-01-12T10:18:35.218Z,6.22
2018-01-12T10:19:35.836Z,6.24
2018-01-12T10:20:36.454Z,6.16
2018-01-12T10:21:37.067Z,6.24
2018-01-12T10:22:37.681Z,6.27
2018-01-12T10:23:38.315Z,6.20
2018-01-12T10:24:38.937Z,6.20
2018-01-12T10:25:39.568Z,6.25
2018-01-12T10:26:40.200Z,6.28
2018-01-12T10:27:40.817Z,6.25
2018-01-12T10:28:41.436Z,6.20
2018-01-12T10:29:42.074Z,6.32
2018-01-12T10:30:42.701Z,6.30
2018-01-12T10:31:43.327Z,6.30
2018-01-12T10:32:44.133Z,6.19
2018-01-12T10:33:44.745Z,6.19
2018-01-12T10:34:45.392Z,6.27
2018-01-12T10:35:46.032Z,6.27
2018-01-12T10:36:46.643Z,6.30
2018-01-12T10:37:47.240Z,6.39
2018-01-12T10:38:47.860Z,6.20
2018-01-12T10:39:48.683Z,6.31
2018-01-12T10:40:49.299Z,6.27
2018-01-12T10:41:49.916Z,6.35
2018-01-12T10:42:50.545Z,6.39
2018-01-12T10:43:51.165Z,6.42
2018-01-12T10:44:51.784Z,6.38
2018-01-12T10:45:52.435Z,6.45
2018-01-12T10:46:53.013Z,6.49
2018-01-12T10:47:53.636Z,6.43
2018-01-12T10:48:54.257Z,6.53
2018-01-12T10:49:54.877Z,6.50
2018-01-12T10:50:55.491Z,6.48
2018-01-12T10:51:56.108Z,6.53
2018-01-12T10:52:56.727Z,6.57
2018-01-12T10:53:57.341Z,6.53
2018-01-12T10:54:57.943Z,6.52
2018-01-12T10:55:58.557Z,6.61
2018-01-12T10:56:59.153Z,6.55
2018-01-12T10:57:59.762Z,6.63
2018-01-12T10:59:00.378Z,6.60
2018-01-12T11:00:00.995Z,6.52
2018-01-12T11:01:01.607Z,6.64
2018-01-12T11:02:02.204Z,6.60
2018-01-12T11:03:03.014Z,6.71
2018-01-12T11:04:03.611Z,6.67
2018-01-12T11:05:04.224Z,6.70
2018-01-12T11:06:04.840Z,6.71
2018-01-12T11:07:05.451Z,6.68
2018-01-12T11:08:06.059Z,6.70
2018-01-12T11:09:06.668Z,6.82
2018-01-12T11:10:07.271Z,6.71
2018-01-12T11:11:08.302Z,6.79
2018-01-12T11:12:08.906Z,6.68
2018-01-12T11:13:09.503Z,6.68
2018-01-12T11:14:10.124Z,6.67
2018-01-12T11:15:10.737Z,6.63
2018-01-12T11:16:11.352Z,6.70
2018-01-12T11:17:11.988Z,6.67
2018-01-12T11:18:12.609Z,6.75
2018-01-12T11:19:13.220Z,6.64
2018-01-12T11:20:13.823Z,6.75
2018-01-12T11:21:14.425Z,6.75
2018-01-12T11:22:15.056Z,6.79
2018-01-12T11:23:15.674Z,6.82
2018-01-12T11:24:16.286Z,6.81
2018-01-12T11:25:16.885Z,6.79
2018-01-12T11:26:17.492Z,6.81
2018-01-12T11:27:18.220Z,6.78
2018-01-12T11:28:18.875Z,6.76
2018-01-12T11:29:19.523Z,6.81
2018-01-12T11:30:20.116Z,6.82
2018-01-12T11:31:20.725Z,6.78
2018-01-12T11:32:21.334Z,6.84
2018-01-12T11:33:21.940Z,6.86
2018-01-12T11:34:22.554Z,6.85
2018-01-12T11:35:23.168Z,6.84
2018-01-12T11:36:23.816Z,6.79
2018-01-12T11:37:24.654Z,6.76
2018-01-12T11:38:25.481Z,6.76
2018-01-12T11:39:26.100Z,6.82
2018-01-12T11:40:26.699Z,6.88
2018-01-12T11:41:27.328Z,6.82
2018-01-12T11:42:27.951Z,6.85
2018-01-12T11:43:28.555Z,6.84
2018-01-12T11:44:29.215Z,6.86
2018-01-12T11:45:29.813Z,6.85
2018-01-12T11:46:30.443Z,7.04
2018-01-12T11:47:31.034Z,7.00
2018-01-12T11:48:31.644Z,6.89
2018-01-12T11:49:32.405Z,6.88
2018-01-12T11:50:33.038Z,6.86
2018-01-12T11:51:33.667Z,6.82
2018-01-12T11:52:34.310Z,6.84
2018-01-12T11:53:34.914Z,6.89
2018-01-12T11:54:35.523Z,6.82
2018-01-12T11:55:36.147Z,6.84
2018-01-12T11:56:36.768Z,6.86
2018-01-12T11:57:37.399Z,6.88
2018-01-12T11:58:38.043Z,6.96
2018-01-12T11:59:38.685Z,7.00
2018-01-12T12:00:39.311Z,6.99
2018-01-12T12:01:39.920Z,6.99
2018-01-12T12:02:40.548Z,7.06
2018-01-12T12:03:41.162Z,7.07
2018-01-12T12:04:41.793Z,7.03
2018-01-12T12:05:42.431Z,7.10
2018-01-12T12:06:43.053Z,7.14
2018-01-12T12:07:43.651Z,7.21
2018-01-12T12:08:44.257Z,7.18
2018-01-12T12:09:44.879Z,7.12
2018-01-12T12:10:45.500Z,7.10
2018-01-12T12:11:46.111Z,7.18
2018-01-12T12:12:46.733Z,7.12
2018-01-12T12:13:47.348Z,7.14
2018-01-12T12:14:47.973Z,7.10
2018-01-12T12:15:48.591Z,7.10
2018-01-12T12:16:49.213Z,7.10
2018-01-12T12:17:49.813Z,7.14
2018-01-12T12:18:50.437Z,7.10
2018-01-12T12:19:51.025Z,7.18
2018-01-12T12:20:51.623Z,7.10
2018-01-12T12:21:52.239Z,7.18
2018-01-12T12:22:52.851Z,7.14
2018-01-12T12:23:53.462Z,7.14
2018-01-12T12:24:54.059Z,7.18
2018-01-12T12:25:54.669Z,7.10
2018-01-12T12:26:55.289Z,7.07
2018-01-12T12:27:55.893Z,7.06
2018-01-12T12:28:56.524Z,7.06
2018-01-12T12:29:57.159Z,7.04
2018-01-12T12:30:57.790Z,7.12
2018-01-12T12:31:58.396Z,7.00
2018-01-12T12:32:59.006Z,7.03
2018-01-12T12:33:59.618Z,7.14
2018-01-12T12:35:00.218Z,7.18
2018-01-12T12:36:00.827Z,7.12
2018-01-12T12:37:01.435Z,7.21
2018-01-12T12:38:02.050Z,7.14
2018-01-12T12:39:02.673Z,7.09
2018-01-12T12:40:03.271Z,7.07
2018-01-12T12:41:03.892Z,7.15
2018-01-12T12:42:04.510Z,7.10
2018-01-12T12:43:05.128Z,7.10
2018-01-12T12:44:05.749Z,7.17
2018-01-12T12:45:06.358Z,7.22
2018-01-12T12:46:06.971Z,7.22
2018-01-12T12:47:07.575Z,7.09
2018-01-12T12:48:08.181Z,7.27
2018-01-12T12:49:08.794Z,7.29
2018-01-12T12:50:09.410Z,7.27
2018-01-12T12:51:10.024Z,7.24
2018-01-12T12:52:10.638Z,7.28
2018-01-12T12:53:11.258Z,7.28
2018-01-12T12:54:11.863Z,7.12
2018-01-12T12:55:12.467Z,7.14
2018-01-12T12:56:13.085Z,7.09
2018-01-12T12:57:13.711Z,7.12
2018-01-12T12:58:14.336Z,7.12
2018-01-12T12:59:14.972Z,7.14
2018-01-12T13:00:15.564Z,7.18
2018-01-12T13:01:16.180Z,7.09
2018-01-12T13:02:16.776Z,7.14
2018-01-12T13:03:17.395Z,7.17
2018-01-12T13:04:17.989Z,7.12
2018-01-12T13:05:18.608Z,7.21
2018-01-12T13:06:19.208Z,7.24
2018-01-12T13:07:19.825Z,7.09
2018-01-12T13:08:20.433Z,7.21
2018-01-12T13:09:21.053Z,7.19
2018-01-12T13:10:21.674Z,7.19
2018-01-12T13:11:22.295Z,7.24
2018-01-12T13:12:22.899Z,7.18
2018-01-12T13:13:23.508Z,7.14
2018-01-12T13:14:24.116Z,7.15
2018-01-12T13:15:24.719Z,7.18
2018-01-12T13:16:25.323Z,7.19
2018-01-12T13:17:25.921Z,7.18
2018-01-12T13:18:26.529Z,7.10
2018-01-12T13:19:27.272Z,7.21
2018-01-12T13:20:27.908Z,7.24
2018-01-12T13:21:28.530Z,7.24
2018-01-12T13:22:29.148Z,7.32
2018-01-12T13:23:29.772Z,7.33
2018-01-12T13:24:30.393Z,7.35
2018-01-12T13:25:31.016Z,7.37
2018-01-12T13:26:31.628Z,7.33